createdAt,value
2017-07-06T00:00:23.375Z,6.00
2017-07-06T00:02:57.574Z,5.63
2017-07-06T00:05:31.681Z,6.73
2017-07-06T00:08:05.745Z,9.03
2017-07-06T00:10:40.613Z,6.63
2017-07-06T00:13:14.764Z,5.63
2017-07-06T00:15:48.841Z,6.17
2017-07-06T00:18:23.041Z,6.33
2017-07-06T00:20:57.312Z,6.10
2017-07-06T00:23:31.340Z,6.60
2017-07-06T00:26:05.541Z,7.20
2017-07-06T00:28:39.756Z,6.70
2017-07-06T00:31:13.957Z,6.40
2017-07-06T00:33:47.956Z,6.47
2017-07-06T00:36:22.006Z,6.73
2017-07-06T00:38:56.148Z,6.17
2017-07-06T00:41:30.185Z,6.13
2017-07-06T00:44:04.397Z,6.37
2017-07-06T00:46:38.421Z,7.73
2017-07-06T00:49:12.548Z,6.60
2017-07-06T00:51:46.594Z,8.10
2017-07-06T00:54:20.753Z,6.47
2017-07-06T00:56:54.946Z,7.53
2017-07-06T00:59:29.049Z,8.53
2017-07-06T01:02:03.051Z,6.40
2017-07-06T01:04:37.088Z,6.70
2017-07-06T01:07:11.260Z,6.40
2017-07-06T01:09:45.279Z,7.00
2017-07-06T01:12:19.447Z,6.77
2017-07-06T01:14:53.517Z,6.83
2017-07-06T01:17:27.749Z,7.70
2017-07-06T01:20:01.810Z,7.37
2017-07-06T01:22:36.024Z,10.63
2017-07-06T01:25:10.227Z,8.03
2017-07-06T01:27:44.351Z,8.33
2017-07-06T01:30:18.583Z,8.97
2017-07-06T01:32:52.596Z,8.50
2017-07-06T01:35:26.864Z,8.03
2017-07-06T01:38:01.130Z,8.17
2017-07-06T01:40:35.208Z,8.40
2017-07-06T01:43:09.218Z,7.80
2017-07-06T01:45:43.417Z,8.23
2017-07-06T01:48:17.520Z,8.43
2017-07-06T01:50:51.636Z,8.17
2017-07-06T01:53:25.759Z,8.50
2017-07-06T01:55:59.893Z,8.60
2017-07-06T01:58:33.930Z,10.37
2017-07-06T02:01:09.554Z,9.50
2017-07-06T02:03:43.799Z,10.13
2017-07-06T02:06:18.142Z,11.10
2017-07-06T02:08:52.734Z,10.20
2017-07-06T02:11:26.779Z,11.13
2017-07-06T02:14:00.915Z,9.37
2017-07-06T02:16:34.945Z,11.33
2017-07-06T02:19:09.180Z,10.03
2017-07-06T02:21:43.183Z,9.80
2017-07-06T02:24:17.329Z,10.50
2017-07-06T02:26:51.386Z,10.00
2017-07-06T02:29:25.593Z,11.20
2017-07-06T02:31:59.826Z,11.60
2017-07-06T02:34:33.844Z,12.13
2017-07-06T02:37:08.038Z,12.60
2017-07-06T02:39:42.129Z,12.40
2017-07-06T02:42:16.516Z,12.67
2017-07-06T02:44:50.717Z,12.23
2017-07-06T02:47:24.947Z,10.83
2017-07-06T02:49:59.144Z,12.13
2017-07-06T02:52:33.176Z,14.80
2017-07-06T02:55:07.373Z,15.47
2017-07-06T02:57:41.453Z,13.50
2017-07-06T03:00:15.654Z,12.43
2017-07-06T03:02:49.699Z,13.33
2017-07-06T03:05:24.045Z,13.13
2017-07-06T03:07:58.223Z,12.83
2017-07-06T03:10:32.297Z,13.40
2017-07-06T03:13:06.293Z,15.03
2017-07-06T03:15:40.355Z,13.70
2017-07-06T03:18:14.479Z,12.63
2017-07-06T03:20:48.557Z,11.93
2017-07-06T03:23:22.745Z,14.10
2017-07-06T03:25:56.936Z,12.60
2017-07-06T03:28:31.117Z,13.37
2017-07-06T03:31:05.268Z,13.13
2017-07-06T03:33:39.313Z,14.63
2017-07-06T03:36:13.495Z,12.80
2017-07-06T03:38:47.584Z,13.50
2017-07-06T03:41:21.789Z,12.70
2017-07-06T03:43:55.784Z,12.53
2017-07-06T03:46:29.916Z,12.40
2017-07-06T03:49:04.112Z,12.80
2017-07-06T03:51:38.183Z,12.10
2017-07-06T03:54:12.364Z,12.47
2017-07-06T03:56:46.441Z,13.37
2017-07-06T03:59:20.549Z,13.13
2017-07-06T04:01:54.575Z,13.17
2017-07-06T04:04:28.614Z,11.40
2017-07-06T04:07:02.780Z,12.53
2017-07-06T04:09:36.837Z,11.80
2017-07-06T04:12:11.215Z,11.13
2017-07-06T04:14:45.391Z,13.00
2017-07-06T04:17:19.629Z,13.10
2017-07-06T04:19:53.628Z,12.63
2017-07-06T04:22:27.737Z,11.87
2017-07-06T04:25:01.873Z,11.03
2017-07-06T04:27:35.966Z,11.83
2017-07-06T04:30:10.152Z,11.70
2017-07-06T04:32:44.204Z,11.97
2017-07-06T04:35:18.429Z,11.70
2017-07-06T04:37:52.474Z,10.83
2017-07-06T04:40:26.453Z,11.27
2017-07-06T04:43:00.512Z,11.73
2017-07-06T04:45:34.614Z,11.73
2017-07-06T04:48:08.781Z,12.30
2017-07-06T04:50:42.829Z,11.40
2017-07-06T04:53:17.065Z,11.97
2017-07-06T04:55:51.072Z,11.47
2017-07-06T04:58:25.152Z,12.37
2017-07-06T05:01:00.654Z,14.20
2017-07-06T05:03:34.641Z,10.13
2017-07-06T05:06:08.764Z,11.30
2017-07-06T05:08:43.069Z,12.10
2017-07-06T05:11:17.159Z,10.63
2017-07-06T05:13:51.363Z,11.30
2017-07-06T05:16:25.565Z,13.70
2017-07-06T05:18:59.730Z,10.17
2017-07-06T05:21:33.833Z,11.10
2017-07-06T05:24:07.993Z,10.77
2017-07-06T05:26:42.057Z,12.70
2017-07-06T05:29:16.061Z,10.43
2017-07-06T05:31:50.168Z,10.40
2017-07-06T05:34:24.304Z,11.40
2017-07-06T05:36:58.445Z,10.17
2017-07-06T05:39:32.479Z,10.30
2017-07-06T05:42:06.587Z,10.97
2017-07-06T05:44:40.734Z,11.73
2017-07-06T05:47:14.919Z,9.20
2017-07-06T05:49:48.904Z,9.87
2017-07-06T05:52:23.060Z,10.00
2017-07-06T05:54:57.270Z,9.80
2017-07-06T05:57:31.307Z,10.37
2017-07-06T06:00:05.474Z,9.90
2017-07-06T06:02:39.707Z,8.73
2017-07-06T06:05:13.892Z,8.80
2017-07-06T06:07:47.961Z,8.90
2017-07-06T06:10:22.090Z,8.20
2017-07-06T06:12:56.153Z,8.00
2017-07-06T06:15:30.217Z,8.10
2017-07-06T06:18:04.424Z,7.40
2017-07-06T06:20:38.465Z,7.50
2017-07-06T06:23:12.652Z,7.93
2017-07-06T06:25:46.797Z,8.27
2017-07-06T06:28:20.784Z,8.13
2017-07-06T06:30:54.804Z,7.00
2017-07-06T06:33:28.873Z,7.30
2017-07-06T06:36:03.067Z,8.03
2017-07-06T06:38:37.064Z,7.07
2017-07-06T06:41:11.037Z,6.83
2017-07-06T06:43:45.210Z,6.40
2017-07-06T06:46:19.407Z,6.40
2017-07-06T06:48:53.517Z,6.60
2017-07-06T06:51:27.532Z,6.40
2017-07-06T06:54:01.768Z,7.53
2017-07-06T06:56:35.773Z,6.20
2017-07-06T06:59:09.964Z,5.57
2017-07-06T07:01:43.953Z,5.73
2017-07-06T07:04:18.000Z,5.93
2017-07-06T07:06:52.373Z,6.30
2017-07-06T07:09:26.486Z,5.70
2017-07-06T07:12:00.693Z,6.03
2017-07-06T07:14:34.849Z,6.20
2017-07-06T07:17:09.065Z,8.60
2017-07-06T07:19:43.170Z,5.50
2017-07-06T07:22:17.216Z,5.20
2017-07-06T07:24:51.280Z,5.60
2017-07-06T07:27:25.455Z,5.10
2017-07-06T07:29:59.488Z,6.50
2017-07-06T07:32:33.545Z,6.10
2017-07-06T07:35:07.725Z,5.63
2017-07-06T07:37:41.895Z,5.87
2017-07-06T07:40:15.981Z,6.03
2017-07-06T07:42:49.992Z,5.27
2017-07-06T07:45:24.051Z,5.43
2017-07-06T07:47:58.226Z,5.30
2017-07-06T07:50:32.335Z,5.00
2017-07-06T07:53:06.489Z,5.33
2017-07-06T07:55:40.490Z,5.43
2017-07-06T07:58:14.580Z,5.40
2017-07-06T08:00:48.652Z,6.03
2017-07-06T08:03:22.848Z,5.83
2017-07-06T08:05:56.883Z,6.10
2017-07-06T08:08:30.951Z,4.90
2017-07-06T08:11:05.111Z,5.20
2017-07-06T08:13:39.243Z,6.10
2017-07-06T08:16:13.412Z,5.23
2017-07-06T08:18:47.497Z,5.40
2017-07-06T08:21:21.570Z,5.27
2017-07-06T08:23:55.679Z,5.90
2017-07-06T08:26:29.729Z,5.47
2017-07-06T08:29:03.749Z,5.40
2017-07-06T08:31:37.784Z,5.53
2017-07-06T08:34:11.904Z,7.27
2017-07-06T08:36:45.881Z,5.70
2017-07-06T08:39:20.074Z,5.90
2017-07-06T08:41:54.224Z,5.40
2017-07-06T08:44:28.247Z,5.70
2017-07-06T08:47:02.374Z,5.87
2017-07-06T08:49:36.497Z,5.60
2017-07-06T08:52:10.680Z,5.43
2017-07-06T08:54:44.794Z,6.20
2017-07-06T08:57:18.865Z,6.33
2017-07-06T08:59:53.019Z,5.80
2017-07-06T09:02:27.132Z,5.53
2017-07-06T09:05:01.269Z,6.13
2017-07-06T09:07:35.313Z,6.07
2017-07-06T09:10:09.560Z,6.00
2017-07-06T09:12:43.713Z,6.33
2017-07-06T09:15:18.054Z,5.83
2017-07-06T09:17:52.072Z,6.93
2017-07-06T09:20:26.251Z,5.77
2017-07-06T09:23:00.400Z,6.17
2017-07-06T09:25:34.508Z,6.97
2017-07-06T09:28:08.543Z,6.47
2017-07-06T09:30:42.656Z,6.70
2017-07-06T09:33:16.799Z,5.70
2017-07-06T09:35:50.824Z,5.97
2017-07-06T09:38:24.976Z,7.90
2017-07-06T09:40:59.145Z,6.27
2017-07-06T09:43:33.288Z,7.10
2017-07-06T09:46:07.518Z,6.73
2017-07-06T09:48:41.801Z,6.97
2017-07-06T09:51:15.929Z,6.50
2017-07-06T09:53:49.998Z,6.50
2017-07-06T09:56:24.356Z,6.57
2017-07-06T09:58:58.413Z,6.73
2017-07-06T10:01:32.494Z,5.93
2017-07-06T10:04:06.652Z,7.93
2017-07-06T10:06:40.724Z,6.30
2017-07-06T10:09:14.882Z,6.87
2017-07-06T10:18:17.856Z,7.17
2017-07-06T10:20:51.881Z,7.33
2017-07-06T10:23:26.033Z,6.57
2017-07-06T10:26:00.215Z,6.90
2017-07-06T10:28:34.329Z,6.40
2017-07-06T10:31:08.526Z,6.90
2017-07-06T10:33:42.613Z,6.90
2017-07-06T10:36:16.737Z,6.40
2017-07-06T10:38:50.777Z,6.63
2017-07-06T10:41:25.132Z,7.30
2017-07-06T10:43:59.189Z,6.40
2017-07-06T10:46:33.225Z,6.30
2017-07-06T10:49:07.411Z,7.20
2017-07-06T10:51:41.474Z,6.43
2017-07-06T10:54:15.580Z,7.33
2017-07-06T10:56:52.441Z,7.00
2017-07-06T10:59:26.628Z,7.07
2017-07-06T11:02:00.861Z,6.73
2017-07-06T11:04:34.884Z,7.00
2017-07-06T11:07:09.016Z,6.60
2017-07-06T11:09:43.041Z,7.33
2017-07-06T11:12:17.207Z,10.00
2017-07-06T11:14:51.359Z,6.97
2017-07-06T11:17:25.497Z,6.93
2017-07-06T11:19:59.665Z,6.70
2017-07-06T11:25:48.452Z,7.23
2017-07-06T11:28:22.498Z,7.00
2017-07-06T11:30:56.480Z,7.10
2017-07-06T11:33:30.682Z,6.93
2017-07-06T11:36:04.884Z,7.27
2017-07-06T11:38:38.927Z,7.60
2017-07-06T11:41:13.101Z,7.20
2017-07-06T11:43:47.289Z,7.27
2017-07-06T11:46:21.467Z,6.93
2017-07-06T11:48:55.623Z,7.47
2017-07-06T11:51:29.732Z,10.57
2017-07-06T11:54:03.744Z,7.63
2017-07-06T11:56:37.784Z,7.67
2017-07-06T11:59:11.828Z,6.67
2017-07-06T12:01:45.945Z,7.13
2017-07-06T12:04:20.074Z,6.80
2017-07-06T12:06:54.192Z,7.10
2017-07-06T12:09:28.274Z,7.07
2017-07-06T12:12:02.517Z,7.17
2017-07-06T12:14:36.656Z,6.83
2017-07-06T12:17:10.831Z,6.43
2017-07-06T12:19:44.916Z,7.30
2017-07-06T12:22:19.071Z,6.70
2017-07-06T12:24:53.124Z,6.60
2017-07-06T12:27:27.321Z,7.33
2017-07-06T12:30:01.861Z,7.37
2017-07-06T12:32:35.956Z,7.13
2017-07-06T12:35:10.162Z,7.20
2017-07-06T12:37:44.178Z,8.02
2017-07-06T12:40:18.377Z,7.10
2017-07-06T12:42:52.552Z,6.93
2017-07-06T12:45:26.751Z,6.97
2017-07-06T12:48:00.840Z,6.60
2017-07-06T12:50:34.861Z,7.07
2017-07-06T12:53:08.802Z,7.67
2017-07-06T12:55:42.934Z,7.30
2017-07-06T12:58:16.928Z,8.20
2017-07-06T13:00:51.628Z,7.63
2017-07-06T13:03:25.756Z,7.67
2017-07-06T13:05:59.935Z,6.83
2017-07-06T13:08:33.984Z,7.53
2017-07-06T13:14:22.917Z,6.63
2017-07-06T13:16:57.115Z,7.27
2017-07-06T13:19:31.202Z,6.67
2017-07-06T13:25:19.856Z,8.10
2017-07-06T13:27:54.146Z,7.57
2017-07-06T13:30:28.258Z,7.00
2017-07-06T13:33:02.417Z,7.03
2017-07-06T13:35:36.477Z,6.80
2017-07-06T13:38:10.629Z,7.57
2017-07-06T13:40:44.622Z,6.90
2017-07-06T13:43:18.708Z,7.90
2017-07-06T13:49:07.388Z,7.60
2017-07-06T13:51:41.510Z,7.67
2017-07-06T13:54:15.669Z,7.90
2017-07-06T13:56:49.698Z,7.07
2017-07-06T13:59:23.736Z,7.97
2017-07-06T14:01:57.886Z,7.37
2017-07-06T14:04:31.988Z,7.18
2017-07-06T14:07:06.169Z,7.65
2017-07-06T14:09:40.227Z,7.87
2017-07-06T14:12:14.349Z,7.60
2017-07-06T14:14:48.526Z,8.30
2017-07-06T14:17:22.659Z,7.50
2017-07-06T14:19:56.949Z,7.60
2017-07-06T14:22:31.154Z,7.60
2017-07-06T14:25:05.319Z,7.80
2017-07-06T14:27:39.364Z,7.70
2017-07-06T14:30:13.525Z,7.72
2017-07-06T14:32:47.670Z,8.13
2017-07-06T14:35:21.856Z,7.93
2017-07-06T14:37:55.849Z,7.93
2017-07-06T14:40:29.860Z,7.60
2017-07-06T14:43:03.888Z,7.23
2017-07-06T14:45:37.922Z,7.20
2017-07-06T14:48:12.055Z,7.60
2017-07-06T14:50:46.095Z,7.33
2017-07-06T14:53:20.260Z,7.53
2017-07-06T14:55:54.377Z,7.67
2017-07-06T14:58:28.464Z,7.30
2017-07-06T15:01:02.654Z,7.30
2017-07-06T15:03:36.972Z,7.30
2017-07-06T15:06:10.991Z,7.50
2017-07-06T15:08:45.359Z,6.83
2017-07-06T15:11:19.477Z,6.57
2017-07-06T15:17:08.384Z,7.10
2017-07-06T15:19:42.412Z,6.83
2017-07-06T15:25:31.341Z,7.40
2017-07-06T15:28:05.389Z,6.70
2017-07-06T15:30:39.441Z,6.23
2017-07-06T15:33:13.624Z,6.93
2017-07-06T15:35:47.690Z,7.50
2017-07-06T15:38:21.847Z,7.17
2017-07-06T15:40:56.006Z,7.20
2017-07-06T15:43:30.148Z,7.57
2017-07-06T15:46:04.320Z,8.77
2017-07-06T15:55:08.489Z,6.80
2017-07-06T15:57:42.546Z,7.00
2017-07-06T16:00:16.673Z,7.13
2017-07-06T16:02:50.749Z,7.80
2017-07-06T16:05:24.878Z,6.43
2017-07-06T16:07:59.116Z,6.73
2017-07-06T16:10:33.165Z,7.20
2017-07-06T16:13:07.213Z,6.80
2017-07-06T16:15:41.181Z,7.63
2017-07-06T16:18:15.413Z,7.10
2017-07-06T16:20:49.456Z,7.50
2017-07-06T16:23:23.684Z,7.33
2017-07-06T16:25:57.668Z,7.00
2017-07-06T16:28:31.879Z,7.67
2017-07-06T16:31:06.068Z,7.33
2017-07-06T16:33:40.133Z,7.63
2017-07-06T16:36:14.185Z,7.40
2017-07-06T16:38:49.076Z,7.50
2017-07-06T16:41:23.261Z,7.53
2017-07-06T16:43:57.309Z,6.73
2017-07-06T16:46:31.476Z,6.90
2017-07-06T16:49:05.680Z,7.67
2017-07-06T16:51:39.706Z,7.80
2017-07-06T16:54:13.887Z,6.97
2017-07-06T16:56:47.939Z,7.83
2017-07-06T16:59:22.044Z,7.00
2017-07-06T17:01:56.185Z,7.60
2017-07-06T17:04:30.383Z,7.63
2017-07-06T17:07:04.567Z,6.90
2017-07-06T17:09:38.661Z,7.63
2017-07-06T17:12:12.859Z,7.90
2017-07-06T17:14:47.027Z,7.40
2017-07-06T17:17:21.039Z,8.30
2017-07-06T17:19:55.104Z,7.30
2017-07-06T17:25:44.767Z,8.17
2017-07-06T17:28:18.984Z,7.13
2017-07-06T17:30:53.208Z,8.77
2017-07-06T17:33:27.439Z,7.40
2017-07-06T17:36:01.648Z,7.57
2017-07-06T17:38:35.649Z,7.70
2017-07-06T17:41:09.639Z,8.47
2017-07-06T17:43:43.636Z,7.80
2017-07-06T17:46:17.851Z,8.10
2017-07-06T17:48:51.996Z,7.90
2017-07-06T17:51:26.027Z,9.00
2017-07-06T17:54:00.217Z,7.93
2017-07-06T17:56:34.206Z,8.00
2017-07-06T18:02:23.718Z,8.80
2017-07-06T18:04:57.829Z,7.87
2017-07-06T18:07:31.977Z,7.50
2017-07-06T18:10:06.166Z,8.97
2017-07-06T18:12:40.465Z,8.33
2017-07-06T18:15:14.695Z,7.90
2017-07-06T18:17:48.803Z,8.23
2017-07-06T18:20:23.011Z,9.20
2017-07-06T18:22:57.139Z,8.33
2017-07-06T18:25:31.254Z,8.03
2017-07-06T18:28:05.327Z,12.33
2017-07-06T18:30:39.434Z,13.33
2017-07-06T18:33:13.632Z,9.40
2017-07-06T18:35:47.857Z,9.00
2017-07-06T18:38:21.935Z,9.47
2017-07-06T18:40:56.329Z,9.23
2017-07-06T18:43:30.412Z,9.07
2017-07-06T18:46:04.645Z,9.00
2017-07-06T18:48:38.875Z,9.77
2017-07-06T18:51:13.151Z,12.50
2017-07-06T18:53:47.409Z,8.40
2017-07-06T18:56:21.613Z,8.57
2017-07-06T18:58:55.758Z,8.53
2017-07-06T19:01:30.666Z,8.97
2017-07-06T19:04:05.329Z,9.43
2017-07-06T19:06:39.685Z,9.80
2017-07-06T19:09:13.832Z,8.87
2017-07-06T19:11:47.896Z,10.33
2017-07-06T19:14:21.933Z,9.70
2017-07-06T19:16:55.997Z,8.60
2017-07-06T19:19:30.017Z,8.37
2017-07-06T19:25:19.038Z,8.53
2017-07-06T19:27:53.213Z,10.10
2017-07-06T19:30:27.424Z,8.77
2017-07-06T19:33:01.670Z,10.10
2017-07-06T19:35:35.841Z,9.10
2017-07-06T19:38:09.965Z,10.17
2017-07-06T19:40:44.180Z,9.20
2017-07-06T19:46:33.482Z,10.90
2017-07-06T19:49:07.656Z,8.97
2017-07-06T19:51:41.959Z,9.27
2017-07-06T19:54:16.120Z,10.40
2017-07-06T19:56:50.190Z,8.87
2017-07-06T19:59:24.431Z,8.87
2017-07-06T20:01:58.573Z,8.53
2017-07-06T20:04:32.612Z,9.50
2017-07-06T20:07:06.812Z,9.43
2017-07-06T20:09:40.884Z,9.13
2017-07-06T20:12:14.987Z,10.10
2017-07-06T20:14:49.275Z,10.17
2017-07-06T20:17:23.547Z,8.60
2017-07-06T20:19:57.741Z,11.33
2017-07-06T20:22:31.953Z,11.80
2017-07-06T20:25:06.172Z,9.60
2017-07-06T20:27:40.351Z,9.90
2017-07-06T20:30:14.535Z,10.53
2017-07-06T20:32:48.682Z,10.50
2017-07-06T20:35:22.930Z,10.40
2017-07-06T20:37:57.064Z,10.93
2017-07-06T20:40:44.862Z,10.60
2017-07-06T20:46:38.122Z,10.97
2017-07-06T20:49:23.699Z,11.07
2017-07-06T20:52:14.900Z,12.10
2017-07-06T20:55:02.737Z,11.20
2017-07-06T20:57:47.729Z,10.93
2017-07-06T21:03:37.316Z,11.30
2017-07-06T21:06:11.664Z,10.67
2017-07-06T21:08:46.379Z,11.53
2017-07-06T21:11:20.590Z,9.80
2017-07-06T21:17:10.289Z,9.30
2017-07-06T21:19:44.307Z,10.60
2017-07-06T21:25:32.987Z,10.30
2017-07-06T21:28:07.087Z,9.80
2017-07-06T21:30:41.128Z,9.40
2017-07-06T21:33:15.407Z,10.33
2017-07-06T21:35:49.669Z,8.80
2017-07-06T21:38:23.704Z,8.07
2017-07-06T21:40:57.968Z,9.00
2017-07-06T21:43:32.313Z,8.97
2017-07-06T21:46:06.457Z,9.40
2017-07-06T21:55:12.392Z,10.57
2017-07-06T21:57:46.624Z,12.50
2017-07-06T22:00:20.813Z,8.77
2017-07-06T22:02:54.876Z,9.17
2017-07-06T22:05:29.111Z,10.10
2017-07-06T22:08:03.386Z,8.70
2017-07-06T22:10:37.466Z,9.13
2017-07-06T22:13:11.729Z,11.40
2017-07-06T22:15:45.827Z,9.60
2017-07-06T22:18:20.102Z,8.83
2017-07-06T22:20:54.292Z,9.93
2017-07-06T22:23:28.477Z,8.83
2017-07-06T22:29:17.962Z,9.37
2017-07-06T22:31:52.328Z,9.57
2017-07-06T22:34:26.504Z,9.30
2017-07-06T22:37:00.710Z,10.70
2017-07-06T22:39:34.732Z,9.70
2017-07-06T22:45:24.003Z,9.47
2017-07-06T22:47:58.449Z,8.77
2017-07-06T22:50:32.603Z,9.63
2017-07-06T22:53:06.825Z,8.80
2017-07-06T22:55:41.023Z,8.67
2017-07-06T22:58:15.092Z,9.27
2017-07-06T23:00:49.725Z,9.70
2017-07-06T23:03:23.812Z,10.30
2017-07-06T23:05:58.048Z,8.77
2017-07-06T23:08:32.184Z,8.70
2017-07-06T23:11:06.145Z,9.87
2017-07-06T23:13:40.326Z,10.63
2017-07-06T23:16:14.476Z,9.83
2017-07-06T23:18:48.540Z,9.23
2017-07-06T23:21:22.603Z,9.97
2017-07-06T23:23:56.723Z,10.20
2017-07-06T23:26:30.718Z,9.47
2017-07-06T23:29:04.881Z,10.60
2017-07-06T23:31:38.893Z,10.63
2017-07-06T23:34:13.181Z,10.77
2017-07-06T23:36:47.293Z,13.30
2017-07-06T23:39:21.280Z,9.37
2017-07-06T23:41:55.536Z,10.30
2017-07-06T23:44:29.725Z,9.67
2017-07-06T23:47:03.780Z,9.73
2017-07-06T23:49:37.805Z,10.30
2017-07-06T23:52:12.003Z,9.10
2017-07-06T23:54:45.996Z,8.70
2017-07-06T23:57:20.040Z,9.90
2017-07-06T23:59:54.257Z,10.00
